sensor_id;sensor_type;location;lat;lon;timestamp;P1;durP1;ratioP1;P2;durP2;ratioP2
42124;SDS011;27787;44.594;11.046;2023-03-01T00:00:07;26.38;;;9.55;;
42124;SDS011;27787;44.594;11.046;2023-03-01T00:02:55;23.40;;;9.88;;
42124;SDS011;27787;44.594;11.046;2023-03-01T00:05:46;23.80;;;10.10;;
42124;SDS011;27787;44.594;11.046;2023-03-01T00:08:30;23.38;;;10.35;;
42124;SDS011;27787;44.594;11.046;2023-03-01T00:14:05;19.42;;;8.75;;
42124;SDS011;27787;44.594;11.046;2023-03-01T00:16:50;17.50;;;8.15;;
42124;SDS011;27787;44.594;11.046;2023-03-01T00:19:34;25.80;;;9.88;;
42124;SDS011;27787;44.594;11.046;2023-03-01T00:22:18;19.13;;;9.65;;
42124;SDS011;27787;44.594;11.046;2023-03-01T00:25:03;18.88;;;9.20;;
42124;SDS011;27787;44.594;11.046;2023-03-01T00:27:47;24.17;;;9.57;;
42124;SDS011;27787;44.594;11.046;2023-03-01T00:30:32;18.85;;;8.85;;
42124;SDS011;27787;44.594;11.046;2023-03-01T00:33:17;19.63;;;9.13;;
42124;SDS011;27787;44.594;11.046;2023-03-01T00:36:02;23.40;;;9.55;;
42124;SDS011;27787;44.594;11.046;2023-03-01T00:38:47;18.08;;;8.77;;
42124;SDS011;27787;44.594;11.046;2023-03-01T00:41:31;17.38;;;8.65;;
42124;SDS011;27787;44.594;11.046;2023-03-01T00:44:15;21.50;;;9.48;;
42124;SDS011;27787;44.594;11.046;2023-03-01T00:46:59;22.38;;;10.27;;
42124;SDS011;27787;44.594;11.046;2023-03-01T00:49:44;20.35;;;9.48;;
42124;SDS011;27787;44.594;11.046;2023-03-01T00:52:28;24.92;;;9.73;;
42124;SDS011;27787;44.594;11.046;2023-03-01T00:55:12;20.65;;;9.15;;
42124;SDS011;27787;44.594;11.046;2023-03-01T00:57:57;25.27;;;9.60;;
42124;SDS011;27787;44.594;11.046;2023-03-01T01:00:42;18.92;;;9.45;;
42124;SDS011;27787;44.594;11.046;2023-03-01T01:03:25;21.65;;;9.45;;
42124;SDS011;27787;44.594;11.046;2023-03-01T01:06:18;18.52;;;8.82;;
42124;SDS011;27787;44.594;11.046;2023-03-01T01:09:22;17.08;;;8.55;;
42124;SDS011;27787;44.594;11.046;2023-03-01T01:12:06;17.52;;;8.73;;
42124;SDS011;27787;44.594;11.046;2023-03-01T01:14:52;20.08;;;8.52;;
42124;SDS011;27787;44.594;11.046;2023-03-01T01:17:36;19.75;;;9.82;;
42124;SDS011;27787;44.594;11.046;2023-03-01T01:20:20;20.00;;;8.75;;
42124;SDS011;27787;44.594;11.046;2023-03-01T01:23:05;20.02;;;10.20;;
42124;SDS011;27787;44.594;11.046;2023-03-01T01:25:49;19.77;;;8.40;;
42124;SDS011;27787;44.594;11.046;2023-03-01T01:28:33;20.90;;;10.23;;
42124;SDS011;27787;44.594;11.046;2023-03-01T01:31:18;19.55;;;8.52;;
42124;SDS011;27787;44.594;11.046;2023-03-01T01:34:03;20.38;;;8.95;;
42124;SDS011;27787;44.594;11.046;2023-03-01T01:36:49;20.73;;;9.35;;
42124;SDS011;27787;44.594;11.046;2023-03-01T01:39:36;17.83;;;9.48;;
42124;SDS011;27787;44.594;11.046;2023-03-01T01:42:21;19.27;;;9.35;;
42124;SDS011;27787;44.594;11.046;2023-03-01T01:45:47;20.98;;;9.57;;
42124;SDS011;27787;44.594;11.046;2023-03-01T01:48:19;24.88;;;9.98;;
42124;SDS011;27787;44.594;11.046;2023-03-01T01:51:06;19.48;;;8.73;;
42124;SDS011;27787;44.594;11.046;2023-03-01T01:53:56;22.63;;;8.95;;
42124;SDS011;27787;44.594;11.046;2023-03-01T01:56:46;22.95;;;9.15;;
42124;SDS011;27787;44.594;11.046;2023-03-01T01:59:36;20.67;;;9.88;;
42124;SDS011;27787;44.594;11.046;2023-03-01T02:02:22;20.70;;;9.52;;
42124;SDS011;27787;44.594;11.046;2023-03-01T02:05:29;18.17;;;10.18;;
42124;SDS011;27787;44.594;11.046;2023-03-01T02:08:38;23.33;;;10.07;;
42124;SDS011;27787;44.594;11.046;2023-03-01T02:11:26;18.52;;;9.25;;
42124;SDS011;27787;44.594;11.046;2023-03-01T02:14:12;20.42;;;8.82;;
42124;SDS011;27787;44.594;11.046;2023-03-01T02:16:59;21.67;;;8.98;;
42124;SDS011;27787;44.594;11.046;2023-03-01T02:22:52;21.60;;;9.15;;
42124;SDS011;27787;44.594;11.046;2023-03-01T02:28:42;20.92;;;9.88;;
42124;SDS011;27787;44.594;11.046;2023-03-01T02:31:28;19.08;;;9.32;;
42124;SDS011;27787;44.594;11.046;2023-03-01T02:34:29;21.08;;;9.13;;
42124;SDS011;27787;44.594;11.046;2023-03-01T02:37:14;21.27;;;8.70;;
42124;SDS011;27787;44.594;11.046;2023-03-01T02:40:06;18.15;;;8.98;;
42124;SDS011;27787;44.594;11.046;2023-03-01T02:42:56;22.20;;;8.57;;
42124;SDS011;27787;44.594;11.046;2023-03-01T02:46:26;19.75;;;9.85;;
42124;SDS011;27787;44.594;11.046;2023-03-01T02:48:53;17.70;;;8.60;;
42124;SDS011;27787;44.594;11.046;2023-03-01T02:51:45;19.42;;;9.15;;
42124;SDS011;27787;44.594;11.046;2023-03-01T02:57:42;26.75;;;9.90;;
42124;SDS011;27787;44.594;11.046;2023-03-01T03:00:28;20.23;;;9.88;;
42124;SDS011;27787;44.594;11.046;2023-03-01T03:03:19;20.40;;;9.50;;
42124;SDS011;27787;44.594;11.046;2023-03-01T03:06:05;22.90;;;9.35;;
42124;SDS011;27787;44.594;11.046;2023-03-01T03:08:49;20.75;;;9.18;;
42124;SDS011;27787;44.594;11.046;2023-03-01T03:11:33;19.15;;;9.15;;
42124;SDS011;27787;44.594;11.046;2023-03-01T03:14:18;23.85;;;9.75;;
42124;SDS011;27787;44.594;11.046;2023-03-01T03:17:04;17.75;;;8.70;;
42124;SDS011;27787;44.594;11.046;2023-03-01T03:19:50;21.02;;;9.75;;
42124;SDS011;27787;44.594;11.046;2023-03-01T03:22:34;19.63;;;8.73;;
42124;SDS011;27787;44.594;11.046;2023-03-01T03:25:19;23.20;;;9.80;;
42124;SDS011;27787;44.594;11.046;2023-03-01T03:28:04;23.92;;;10.48;;
42124;SDS011;27787;44.594;11.046;2023-03-01T03:30:56;20.13;;;8.90;;
42124;SDS011;27787;44.594;11.046;2023-03-01T03:33:40;18.73;;;9.23;;
42124;SDS011;27787;44.594;11.046;2023-03-01T03:36:24;17.73;;;8.90;;
42124;SDS011;27787;44.594;11.046;2023-03-01T03:39:09;23.55;;;9.90;;
42124;SDS011;27787;44.594;11.046;2023-03-01T03:41:53;23.65;;;9.75;;
42124;SDS011;27787;44.594;11.046;2023-03-01T03:44:37;23.70;;;9.90;;
42124;SDS011;27787;44.594;11.046;2023-03-01T03:47:21;20.88;;;10.32;;
42124;SDS011;27787;44.594;11.046;2023-03-01T03:50:06;17.15;;;8.40;;
42124;SDS011;27787;44.594;11.046;2023-03-01T03:52:50;23.27;;;10.60;;
42124;SDS011;27787;44.594;11.046;2023-03-01T03:55:35;18.92;;;9.88;;
42124;SDS011;27787;44.594;11.046;2023-03-01T03:58:23;20.75;;;9.18;;
42124;SDS011;27787;44.594;11.046;2023-03-01T04:01:08;23.35;;;9.88;;
42124;SDS011;27787;44.594;11.046;2023-03-01T04:03:52;17.98;;;9.68;;
42124;SDS011;27787;44.594;11.046;2023-03-01T04:09:22;20.83;;;10.68;;
42124;SDS011;27787;44.594;11.046;2023-03-01T04:12:06;23.00;;;9.95;;
42124;SDS011;27787;44.594;11.046;2023-03-01T04:14:50;19.98;;;9.13;;
42124;SDS011;27787;44.594;11.046;2023-03-01T04:17:34;18.20;;;8.70;;
42124;SDS011;27787;44.594;11.046;2023-03-01T04:20:20;23.60;;;10.52;;
42124;SDS011;27787;44.594;11.046;2023-03-01T04:23:10;21.17;;;9.25;;
42124;SDS011;27787;44.594;11.046;2023-03-01T04:25:59;19.38;;;8.93;;
42124;SDS011;27787;44.594;11.046;2023-03-01T04:28:43;18.55;;;9.20;;
42124;SDS011;27787;44.594;11.046;2023-03-01T04:31:29;23.40;;;9.77;;
42124;SDS011;27787;44.594;11.046;2023-03-01T04:34:13;20.83;;;10.05;;
42124;SDS011;27787;44.594;11.046;2023-03-01T04:36:57;18.95;;;9.45;;
42124;SDS011;27787;44.594;11.046;2023-03-01T04:39:41;20.90;;;9.20;;
42124;SDS011;27787;44.594;11.046;2023-03-01T04:42:29;26.75;;;10.57;;
42124;SDS011;27787;44.594;11.046;2023-03-01T04:45:13;22.75;;;10.27;;
42124;SDS011;27787;44.594;11.046;2023-03-01T04:47:57;21.88;;;9.65;;
42124;SDS011;27787;44.594;11.046;2023-03-01T04:50:41;27.75;;;10.38;;
42124;SDS011;27787;44.594;11.046;2023-03-01T04:53:26;22.85;;;10.38;;
42124;SDS011;27787;44.594;11.046;2023-03-01T04:56:11;22.95;;;10.07;;
42124;SDS011;27787;44.594;11.046;2023-03-01T04:58:59;20.85;;;9.65;;
42124;SDS011;27787;44.594;11.046;2023-03-01T05:01:44;21.17;;;11.00;;
42124;SDS011;27787;44.594;11.046;2023-03-01T05:04:28;20.92;;;9.32;;
42124;SDS011;27787;44.594;11.046;2023-03-01T05:07:14;23.05;;;9.60;;
42124;SDS011;27787;44.594;11.046;2023-03-01T05:10:02;24.98;;;11.20;;
42124;SDS011;27787;44.594;11.046;2023-03-01T05:12:47;22.88;;;10.02;;
42124;SDS011;27787;44.594;11.046;2023-03-01T05:15:31;22.75;;;10.65;;
42124;SDS011;27787;44.594;11.046;2023-03-01T05:18:16;22.98;;;10.07;;
42124;SDS011;27787;44.594;11.046;2023-03-01T05:21:08;22.38;;;9.75;;
42124;SDS011;27787;44.594;11.046;2023-03-01T05:23:54;21.58;;;9.30;;
42124;SDS011;27787;44.594;11.046;2023-03-01T05:26:39;19.50;;;9.32;;
42124;SDS011;27787;44.594;11.046;2023-03-01T05:29:24;19.33;;;9.30;;
42124;SDS011;27787;44.594;11.046;2023-03-01T05:32:10;19.80;;;9.50;;
42124;SDS011;27787;44.594;11.046;2023-03-01T05:34:59;18.42;;;9.43;;
42124;SDS011;27787;44.594;11.046;2023-03-01T05:37:44;22.50;;;10.60;;
42124;SDS011;27787;44.594;11.046;2023-03-01T05:43:14;20.85;;;9.07;;
42124;SDS011;27787;44.594;11.046;2023-03-01T05:46:00;16.92;;;8.88;;
42124;SDS011;27787;44.594;11.046;2023-03-01T05:48:44;18.95;;;9.88;;
42124;SDS011;27787;44.594;11.046;2023-03-01T05:51:28;17.98;;;8.63;;
42124;SDS011;27787;44.594;11.046;2023-03-01T05:54:12;23.73;;;10.95;;
42124;SDS011;27787;44.594;11.046;2023-03-01T05:56:56;23.90;;;10.13;;
42124;SDS011;27787;44.594;11.046;2023-03-01T05:59:40;20.25;;;9.85;;
42124;SDS011;27787;44.594;11.046;2023-03-01T06:02:24;20.27;;;9.18;;
42124;SDS011;27787;44.594;11.046;2023-03-01T06:05:09;24.05;;;10.48;;
42124;SDS011;27787;44.594;11.046;2023-03-01T06:07:55;25.27;;;9.68;;
42124;SDS011;27787;44.594;11.046;2023-03-01T06:10:43;20.77;;;9.82;;
42124;SDS011;27787;44.594;11.046;2023-03-01T06:13:27;26.67;;;10.35;;
42124;SDS011;27787;44.594;11.046;2023-03-01T06:16:11;25.42;;;9.88;;
42124;SDS011;27787;44.594;11.046;2023-03-01T06:18:56;17.65;;;9.50;;
42124;SDS011;27787;44.594;11.046;2023-03-01T06:21:40;20.70;;;9.00;;
42124;SDS011;27787;44.594;11.046;2023-03-01T06:24:25;23.00;;;9.77;;
42124;SDS011;27787;44.594;11.046;2023-03-01T06:27:09;21.48;;;9.93;;
42124;SDS011;27787;44.594;11.046;2023-03-01T06:29:53;23.00;;;10.55;;
42124;SDS011;27787;44.594;11.046;2023-03-01T06:32:38;22.17;;;9.85;;
42124;SDS011;27787;44.594;11.046;2023-03-01T06:35:25;21.75;;;9.40;;
42124;SDS011;27787;44.594;11.046;2023-03-01T06:38:13;26.40;;;10.23;;
42124;SDS011;27787;44.594;11.046;2023-03-01T06:40:58;28.33;;;10.88;;
42124;SDS011;27787;44.594;11.046;2023-03-01T06:43:43;27.70;;;10.93;;
42124;SDS011;27787;44.594;11.046;2023-03-01T06:46:27;21.88;;;10.15;;
42124;SDS011;27787;44.594;11.046;2023-03-01T06:49:11;21.45;;;9.88;;
42124;SDS011;27787;44.594;11.046;2023-03-01T06:51:54;20.40;;;9.25;;
42124;SDS011;27787;44.594;11.046;2023-03-01T06:54:39;21.10;;;9.68;;
42124;SDS011;27787;44.594;11.046;2023-03-01T06:57:23;24.55;;;10.15;;
42124;SDS011;27787;44.594;11.046;2023-03-01T07:00:08;22.88;;;9.98;;
42124;SDS011;27787;44.594;11.046;2023-03-01T07:02:54;20.02;;;9.48;;
42124;SDS011;27787;44.594;11.046;2023-03-01T07:05:39;21.52;;;9.60;;
42124;SDS011;27787;44.594;11.046;2023-03-01T07:08:23;21.85;;;10.43;;
42124;SDS011;27787;44.594;11.046;2023-03-01T07:11:07;23.23;;;10.40;;
42124;SDS011;27787;44.594;11.046;2023-03-01T07:13:51;24.88;;;11.18;;
42124;SDS011;27787;44.594;11.046;2023-03-01T07:16:36;18.23;;;9.60;;
42124;SDS011;27787;44.594;11.046;2023-03-01T07:19:20;22.25;;;10.00;;
42124;SDS011;27787;44.594;11.046;2023-03-01T07:22:05;22.42;;;10.43;;
42124;SDS011;27787;44.594;11.046;2023-03-01T07:24:51;23.50;;;9.95;;
42124;SDS011;27787;44.594;11.046;2023-03-01T07:27:35;23.25;;;10.57;;
42124;SDS011;27787;44.594;11.046;2023-03-01T07:33:29;21.25;;;9.27;;
42124;SDS011;27787;44.594;11.046;2023-03-01T07:36:14;25.55;;;10.32;;
42124;SDS011;27787;44.594;11.046;2023-03-01T07:38:58;21.15;;;10.02;;
42124;SDS011;27787;44.594;11.046;2023-03-01T07:41:42;24.38;;;10.50;;
42124;SDS011;27787;44.594;11.046;2023-03-01T07:44:26;25.48;;;10.95;;
42124;SDS011;27787;44.594;11.046;2023-03-01T07:47:11;23.20;;;9.88;;
42124;SDS011;27787;44.594;11.046;2023-03-01T07:49:56;24.27;;;11.32;;
42124;SDS011;27787;44.594;11.046;2023-03-01T07:52:40;27.25;;;11.85;;
42124;SDS011;27787;44.594;11.046;2023-03-01T07:55:24;27.90;;;11.75;;
42124;SDS011;27787;44.594;11.046;2023-03-01T07:58:08;22.05;;;10.27;;
42124;SDS011;27787;44.594;11.046;2023-03-01T08:00:52;20.25;;;9.88;;
42124;SDS011;27787;44.594;11.046;2023-03-01T08:03:37;29.15;;;11.40;;
42124;SDS011;27787;44.594;11.046;2023-03-01T08:06:21;24.48;;;11.07;;
42124;SDS011;27787;44.594;11.046;2023-03-01T08:09:06;22.33;;;10.73;;
42124;SDS011;27787;44.594;11.046;2023-03-01T08:17:48;25.00;;;11.60;;
42124;SDS011;27787;44.594;11.046;2023-03-01T08:20:33;25.00;;;11.57;;
42124;SDS011;27787;44.594;11.046;2023-03-01T08:23:17;28.08;;;12.27;;
42124;SDS011;27787;44.594;11.046;2023-03-01T08:28:53;31.23;;;12.70;;
42124;SDS011;27787;44.594;11.046;2023-03-01T08:31:38;30.88;;;12.65;;
42124;SDS011;27787;44.594;11.046;2023-03-01T08:34:26;29.67;;;12.40;;
42124;SDS011;27787;44.594;11.046;2023-03-01T08:37:10;35.72;;;13.93;;
42124;SDS011;27787;44.594;11.046;2023-03-01T08:39:54;26.92;;;12.48;;
42124;SDS011;27787;44.594;11.046;2023-03-01T08:42:39;25.23;;;12.05;;
42124;SDS011;27787;44.594;11.046;2023-03-01T08:45:23;26.13;;;13.05;;
42124;SDS011;27787;44.594;11.046;2023-03-01T08:48:07;32.42;;;11.40;;
42124;SDS011;27787;44.594;11.046;2023-03-01T08:50:51;26.50;;;12.43;;
42124;SDS011;27787;44.594;11.046;2023-03-01T08:53:35;34.55;;;15.25;;
42124;SDS011;27787;44.594;11.046;2023-03-01T08:56:20;30.65;;;14.02;;
42124;SDS011;27787;44.594;11.046;2023-03-01T08:59:04;32.00;;;14.63;;
42124;SDS011;27787;44.594;11.046;2023-03-01T09:01:51;40.42;;;14.88;;
42124;SDS011;27787;44.594;11.046;2023-03-01T09:04:35;36.92;;;15.48;;
42124;SDS011;27787;44.594;11.046;2023-03-01T09:07:18;39.97;;;16.88;;
42124;SDS011;27787;44.594;11.046;2023-03-01T09:10:02;37.22;;;15.82;;
42124;SDS011;27787;44.594;11.046;2023-03-01T09:12:47;46.15;;;17.13;;
42124;SDS011;27787;44.594;11.046;2023-03-01T09:15:31;35.97;;;16.42;;
42124;SDS011;27787;44.594;11.046;2023-03-01T09:18:16;36.85;;;17.20;;
42124;SDS011;27787;44.594;11.046;2023-03-01T09:21:01;37.53;;;17.25;;
42124;SDS011;27787;44.594;11.046;2023-03-01T09:23:50;37.67;;;16.88;;
42124;SDS011;27787;44.594;11.046;2023-03-01T09:26:34;29.90;;;14.50;;
42124;SDS011;27787;44.594;11.046;2023-03-01T09:29:18;35.30;;;14.30;;
42124;SDS011;27787;44.594;11.046;2023-03-01T09:32:03;29.55;;;12.98;;
42124;SDS011;27787;44.594;11.046;2023-03-01T09:34:47;30.63;;;13.25;;
42124;SDS011;27787;44.594;11.046;2023-03-01T09:37:50;28.80;;;12.77;;
42124;SDS011;27787;44.594;11.046;2023-03-01T09:40:35;27.83;;;12.43;;
42124;SDS011;27787;44.594;11.046;2023-03-01T09:43:27;28.65;;;11.93;;
42124;SDS011;27787;44.594;11.046;2023-03-01T09:46:22;26.55;;;11.68;;
42124;SDS011;27787;44.594;11.046;2023-03-01T09:49:17;32.17;;;12.02;;
42124;SDS011;27787;44.594;11.046;2023-03-01T09:52:12;28.25;;;11.38;;
42124;SDS011;27787;44.594;11.046;2023-03-01T09:58:54;24.02;;;10.68;;
42124;SDS011;27787;44.594;11.046;2023-03-01T10:01:59;24.88;;;10.50;;
42124;SDS011;27787;44.594;11.046;2023-03-01T10:04:49;25.42;;;11.25;;
42124;SDS011;27787;44.594;11.046;2023-03-01T10:07:54;24.77;;;11.32;;
42124;SDS011;27787;44.594;11.046;2023-03-01T10:10:47;29.63;;;11.75;;
42124;SDS011;27787;44.594;11.046;2023-03-01T10:22:28;19.67;;;9.68;;
42124;SDS011;27787;44.594;11.046;2023-03-01T10:25:15;23.67;;;10.57;;
42124;SDS011;27787;44.594;11.046;2023-03-01T10:28:10;24.65;;;11.30;;
42124;SDS011;27787;44.594;11.046;2023-03-01T10:31:00;24.00;;;10.73;;
42124;SDS011;27787;44.594;11.046;2023-03-01T10:33:44;21.58;;;10.68;;
42124;SDS011;27787;44.594;11.046;2023-03-01T10:36:28;26.88;;;10.82;;
42124;SDS011;27787;44.594;11.046;2023-03-01T10:39:17;23.77;;;10.55;;
42124;SDS011;27787;44.594;11.046;2023-03-01T10:42:05;28.38;;;11.15;;
42124;SDS011;27787;44.594;11.046;2023-03-01T10:45:14;27.20;;;12.02;;
42124;SDS011;27787;44.594;11.046;2023-03-01T10:53:42;23.58;;;11.35;;
42124;SDS011;27787;44.594;11.046;2023-03-01T10:56:42;21.00;;;10.23;;
42124;SDS011;27787;44.594;11.046;2023-03-01T10:59:32;22.45;;;9.93;;
42124;SDS011;27787;44.594;11.046;2023-03-01T11:02:28;24.90;;;10.63;;
42124;SDS011;27787;44.594;11.046;2023-03-01T11:07:58;22.33;;;9.73;;
42124;SDS011;27787;44.594;11.046;2023-03-01T11:10:43;28.08;;;11.02;;
42124;SDS011;27787;44.594;11.046;2023-03-01T11:13:27;21.08;;;10.45;;
42124;SDS011;27787;44.594;11.046;2023-03-01T11:16:13;22.02;;;10.57;;
42124;SDS011;27787;44.594;11.046;2023-03-01T11:19:00;21.25;;;9.35;;
42124;SDS011;27787;44.594;11.046;2023-03-01T11:25:07;20.90;;;9.77;;
42124;SDS011;27787;44.594;11.046;2023-03-01T11:27:56;25.23;;;9.18;;
42124;SDS011;27787;44.594;11.046;2023-03-01T11:36:49;21.35;;;9.75;;
42124;SDS011;27787;44.594;11.046;2023-03-01T11:39:39;25.02;;;10.90;;
42124;SDS011;27787;44.594;11.046;2023-03-01T11:45:38;24.48;;;10.32;;
42124;SDS011;27787;44.594;11.046;2023-03-01T11:48:37;29.08;;;10.93;;
42124;SDS011;27787;44.594;11.046;2023-03-01T12:07:21;22.20;;;10.73;;
42124;SDS011;27787;44.594;11.046;2023-03-01T12:10:35;23.65;;;9.57;;
42124;SDS011;27787;44.594;11.046;2023-03-01T12:23:25;22.77;;;10.70;;
42124;SDS011;27787;44.594;11.046;2023-03-01T12:26:32;22.38;;;10.50;;
42124;SDS011;27787;44.594;11.046;2023-03-01T12:50:40;25.55;;;11.23;;
42124;SDS011;27787;44.594;11.046;2023-03-01T12:53:29;23.20;;;10.38;;
42124;SDS011;27787;44.594;11.046;2023-03-01T12:56:17;23.27;;;11.30;;
42124;SDS011;27787;44.594;11.046;2023-03-01T12:59:18;26.27;;;11.38;;
42124;SDS011;27787;44.594;11.046;2023-03-01T13:08:20;28.45;;;12.60;;
42124;SDS011;27787;44.594;11.046;2023-03-01T13:11:17;25.33;;;10.40;;
42124;SDS011;27787;44.594;11.046;2023-03-01T13:17:07;25.00;;;12.25;;
42124;SDS011;27787;44.594;11.046;2023-03-01T13:20:17;24.52;;;10.95;;
42124;SDS011;27787;44.594;11.046;2023-03-01T13:26:06;26.55;;;11.23;;
42124;SDS011;27787;44.594;11.046;2023-03-01T13:29:26;26.23;;;11.45;;
42124;SDS011;27787;44.594;11.046;2023-03-01T13:38:36;26.83;;;12.07;;
42124;SDS011;27787;44.594;11.046;2023-03-01T13:49:59;36.17;;;14.32;;
42124;SDS011;27787;44.594;11.046;2023-03-01T13:55:47;31.63;;;13.70;;
42124;SDS011;27787;44.594;11.046;2023-03-01T14:01:44;31.73;;;13.90;;
42124;SDS011;27787;44.594;11.046;2023-03-01T14:04:40;29.30;;;12.98;;
42124;SDS011;27787;44.594;11.046;2023-03-01T14:10:13;27.95;;;13.25;;
42124;SDS011;27787;44.594;11.046;2023-03-01T14:13:06;30.83;;;13.30;;
42124;SDS011;27787;44.594;11.046;2023-03-01T14:19:26;30.33;;;13.68;;
42124;SDS011;27787;44.594;11.046;2023-03-01T14:22:22;28.35;;;12.75;;
42124;SDS011;27787;44.594;11.046;2023-03-01T14:25:25;33.83;;;14.32;;
42124;SDS011;27787;44.594;11.046;2023-03-01T14:28:21;26.20;;;13.23;;
42124;SDS011;27787;44.594;11.046;2023-03-01T14:34:26;28.67;;;12.70;;
42124;SDS011;27787;44.594;11.046;2023-03-01T14:40:21;30.30;;;12.63;;
42124;SDS011;27787;44.594;11.046;2023-03-01T14:43:10;28.58;;;12.82;;
42124;SDS011;27787;44.594;11.046;2023-03-01T14:45:56;29.35;;;13.80;;
42124;SDS011;27787;44.594;11.046;2023-03-01T14:48:41;30.00;;;12.55;;
42124;SDS011;27787;44.594;11.046;2023-03-01T14:51:25;28.45;;;12.77;;
42124;SDS011;27787;44.594;11.046;2023-03-01T14:54:26;23.95;;;11.25;;
42124;SDS011;27787;44.594;11.046;2023-03-01T14:57:14;28.05;;;11.20;;
42124;SDS011;27787;44.594;11.046;2023-03-01T15:00:16;28.13;;;11.85;;
42124;SDS011;27787;44.594;11.046;2023-03-01T15:03:08;25.73;;;11.65;;
42124;SDS011;27787;44.594;11.046;2023-03-01T15:05:56;29.55;;;12.70;;
42124;SDS011;27787;44.594;11.046;2023-03-01T15:08:42;26.27;;;10.82;;
42124;SDS011;27787;44.594;11.046;2023-03-01T15:11:30;29.45;;;11.45;;
42124;SDS011;27787;44.594;11.046;2023-03-01T15:20:17;28.58;;;12.20;;
42124;SDS011;27787;44.594;11.046;2023-03-01T15:23:05;27.95;;;10.98;;
42124;SDS011;27787;44.594;11.046;2023-03-01T15:25:51;25.13;;;11.18;;
42124;SDS011;27787;44.594;11.046;2023-03-01T15:28:41;24.55;;;10.30;;
42124;SDS011;27787;44.594;11.046;2023-03-01T15:31:34;22.67;;;10.48;;
42124;SDS011;27787;44.594;11.046;2023-03-01T15:34:23;22.70;;;11.00;;
42124;SDS011;27787;44.594;11.046;2023-03-01T15:37:44;24.23;;;10.38;;
42124;SDS011;27787;44.594;11.046;2023-03-01T15:40:23;26.15;;;11.68;;
42124;SDS011;27787;44.594;11.046;2023-03-01T15:43:36;26.50;;;12.05;;
42124;SDS011;27787;44.594;11.046;2023-03-01T15:46:33;29.35;;;10.85;;
42124;SDS011;27787;44.594;11.046;2023-03-01T15:49:40;33.28;;;11.23;;
42124;SDS011;27787;44.594;11.046;2023-03-01T15:55:20;28.05;;;12.30;;
42124;SDS011;27787;44.594;11.046;2023-03-01T15:58:12;34.20;;;12.68;;
42124;SDS011;27787;44.594;11.046;2023-03-01T16:01:02;30.30;;;11.70;;
42124;SDS011;27787;44.594;11.046;2023-03-01T16:03:46;30.90;;;12.55;;
42124;SDS011;27787;44.594;11.046;2023-03-01T16:06:30;23.67;;;11.38;;
42124;SDS011;27787;44.594;11.046;2023-03-01T16:09:15;24.77;;;11.43;;
42124;SDS011;27787;44.594;11.046;2023-03-01T16:11:59;28.33;;;12.40;;
42124;SDS011;27787;44.594;11.046;2023-03-01T16:14:43;34.35;;;15.05;;
42124;SDS011;27787;44.594;11.046;2023-03-01T16:17:26;32.45;;;13.10;;
42124;SDS011;27787;44.594;11.046;2023-03-01T16:20:11;23.75;;;11.95;;
42124;SDS011;27787;44.594;11.046;2023-03-01T16:23:00;30.27;;;12.90;;
42124;SDS011;27787;44.594;11.046;2023-03-01T16:25:45;30.60;;;13.15;;
42124;SDS011;27787;44.594;11.046;2023-03-01T16:28:29;29.13;;;12.40;;
42124;SDS011;27787;44.594;11.046;2023-03-01T16:31:16;25.40;;;11.60;;
42124;SDS011;27787;44.594;11.046;2023-03-01T16:34:02;31.73;;;13.95;;
42124;SDS011;27787;44.594;11.046;2023-03-01T16:36:47;25.52;;;12.13;;
42124;SDS011;27787;44.594;11.046;2023-03-01T16:39:31;32.67;;;14.15;;
42124;SDS011;27787;44.594;11.046;2023-03-01T16:42:19;29.85;;;14.65;;
42124;SDS011;27787;44.594;11.046;2023-03-01T16:45:07;33.03;;;14.45;;
42124;SDS011;27787;44.594;11.046;2023-03-01T16:47:52;27.50;;;12.67;;
42124;SDS011;27787;44.594;11.046;2023-03-01T16:50:36;36.70;;;14.02;;
42124;SDS011;27787;44.594;11.046;2023-03-01T16:53:20;30.67;;;13.52;;
42124;SDS011;27787;44.594;11.046;2023-03-01T16:56:05;32.85;;;14.75;;
42124;SDS011;27787;44.594;11.046;2023-03-01T16:58:51;29.83;;;14.88;;
42124;SDS011;27787;44.594;11.046;2023-03-01T17:01:35;29.58;;;14.02;;
42124;SDS011;27787;44.594;11.046;2023-03-01T17:04:24;32.85;;;15.32;;
42124;SDS011;27787;44.594;11.046;2023-03-01T17:07:08;30.50;;;15.10;;
42124;SDS011;27787;44.594;11.046;2023-03-01T17:09:52;31.52;;;14.45;;
42124;SDS011;27787;44.594;11.046;2023-03-01T17:12:36;33.40;;;14.95;;
42124;SDS011;27787;44.594;11.046;2023-03-01T17:15:20;30.65;;;14.30;;
42124;SDS011;27787;44.594;11.046;2023-03-01T17:18:04;30.05;;;14.85;;
42124;SDS011;27787;44.594;11.046;2023-03-01T17:20:48;27.13;;;13.68;;
42124;SDS011;27787;44.594;11.046;2023-03-01T17:23:32;32.47;;;15.85;;
42124;SDS011;27787;44.594;11.046;2023-03-01T17:26:17;34.30;;;15.38;;
42124;SDS011;27787;44.594;11.046;2023-03-01T17:29:02;30.45;;;15.15;;
42124;SDS011;27787;44.594;11.046;2023-03-01T17:31:48;31.52;;;15.48;;
42124;SDS011;27787;44.594;11.046;2023-03-01T17:34:32;32.13;;;15.88;;
42124;SDS011;27787;44.594;11.046;2023-03-01T17:37:17;35.67;;;16.10;;
42124;SDS011;27787;44.594;11.046;2023-03-01T17:40:01;32.03;;;15.70;;
42124;SDS011;27787;44.594;11.046;2023-03-01T17:42:46;31.55;;;15.55;;
42124;SDS011;27787;44.594;11.046;2023-03-01T17:45:30;30.70;;;15.10;;
42124;SDS011;27787;44.594;11.046;2023-03-01T17:48:14;28.42;;;15.00;;
42124;SDS011;27787;44.594;11.046;2023-03-01T17:51:04;28.08;;;14.77;;
42124;SDS011;27787;44.594;11.046;2023-03-01T17:53:49;29.50;;;15.43;;
42124;SDS011;27787;44.594;11.046;2023-03-01T17:56:33;28.98;;;14.93;;
42124;SDS011;27787;44.594;11.046;2023-03-01T17:59:17;29.70;;;14.63;;
42124;SDS011;27787;44.594;11.046;2023-03-01T18:02:01;30.55;;;15.65;;
42124;SDS011;27787;44.594;11.046;2023-03-01T18:04:46;28.10;;;14.60;;
42124;SDS011;27787;44.594;11.046;2023-03-01T18:07:31;25.35;;;13.63;;
42124;SDS011;27787;44.594;11.046;2023-03-01T18:10:16;26.60;;;12.65;;
42124;SDS011;27787;44.594;11.046;2023-03-01T18:13:02;26.15;;;14.00;;
42124;SDS011;27787;44.594;11.046;2023-03-01T18:18:31;22.88;;;11.60;;
42124;SDS011;27787;44.594;11.046;2023-03-01T18:21:15;31.13;;;13.65;;
42124;SDS011;27787;44.594;11.046;2023-03-01T18:24:01;24.45;;;13.48;;
42124;SDS011;27787;44.594;11.046;2023-03-01T18:26:46;24.58;;;12.77;;
42124;SDS011;27787;44.594;11.046;2023-03-01T18:29:30;22.85;;;12.35;;
42124;SDS011;27787;44.594;11.046;2023-03-01T18:32:15;29.38;;;12.90;;
42124;SDS011;27787;44.594;11.046;2023-03-01T18:34:59;24.33;;;11.73;;
42124;SDS011;27787;44.594;11.046;2023-03-01T18:37:44;23.13;;;11.23;;
42124;SDS011;27787;44.594;11.046;2023-03-01T18:40:28;20.60;;;11.50;;
42124;SDS011;27787;44.594;11.046;2023-03-01T18:43:14;24.17;;;11.00;;
42124;SDS011;27787;44.594;11.046;2023-03-01T18:45:58;22.20;;;11.88;;
42124;SDS011;27787;44.594;11.046;2023-03-01T18:48:43;28.00;;;14.00;;
42124;SDS011;27787;44.594;11.046;2023-03-01T18:51:27;23.02;;;11.90;;
42124;SDS011;27787;44.594;11.046;2023-03-01T18:54:12;18.90;;;10.27;;
42124;SDS011;27787;44.594;11.046;2023-03-01T18:56:56;22.08;;;10.80;;